Time;durP1;ratioP1;P1;durP2;ratioP2;P2;SDS_P1;SDS_P2;PMS_P1;PMS_P2;Temp;Humidity;BMP_temperature;BMP_pressure;BME280_temperature;BME280_humidity;BME280_pressure;Samples;Min_cycle;Max_cycle;Signal;HPM_P1;HPM_P2
2022/05/25 05:09:57;;;;;;;;;;;;;;;17.97;54.27;96785.81;4226561;27;10282;-79
2022/05/25 05:12:00;;;;;;;;;;;;;;;18.20;54.02;96784.88;4212879;28;5710;-79
2022/05/25 05:14:03;;;;;;;;;;;;;;;18.38;53.81;96789.19;4214618;28;5796;-79
2022/05/25 05:16:09;;;;;;;;;;;;;;;18.54;53.61;96788.38;4212718;28;5690;-79
2022/05/25 05:18:12;;;;;;;;;;;;;;;18.67;53.54;96803.34;4213034;28;5110;-79
2022/05/25 05:20:16;;;;;;;;;;;;;;;18.77;53.31;96798.13;4208259;28;5121;-79
2022/05/25 05:22:19;;;;;;;;;;;;;;;18.87;53.23;96798.28;4212757;28;5689;-79
2022/05/25 05:24:22;;;;;;;;;;;;;;;18.97;53.23;96792.28;4210188;28;5897;-79
2022/05/25 05:26:26;;;;;;;;;;;;;;;19.05;52.87;96783.81;4212370;28;5237;-78
2022/05/25 05:28:31;;;;;;;;;;;;;;;19.16;52.79;96782.91;4206109;28;5812;-79
2022/05/25 05:30:37;;;;;;;;;;;;;;;19.27;52.66;96791.09;4202647;28;5832;-79
2022/05/25 05:32:40;;;;;;;;;;;;;;;19.40;52.29;96785.34;4207665;28;5709;-79
2022/05/25 05:34:43;;;;;;;;;;;;;;;19.53;52.24;96789.53;4212207;28;5710;-78
2022/05/25 05:36:51;;;;;;;;;;;;;;;19.68;52.02;96795.91;4212116;28;6394;-79
2022/05/25 05:38:58;;;;;;;;;;;;;;;19.88;51.74;96797.19;4211627;28;6560;-79
2022/05/25 05:41:01;;;;;;;;;;;;;;;20.04;51.49;96790.91;4214666;28;5047;-78
2022/05/25 05:43:08;;;;;;;;;;;;;;;20.21;51.29;96799.69;4214590;28;5888;-78
2022/05/25 05:45:17;;;;;;;;;;;;;;;20.41;50.69;96798.25;4213481;28;5713;-79
2022/05/25 05:47:26;;;;;;;;;;;;;;;20.57;50.57;96795.47;4214653;28;5704;-78
2022/05/25 05:49:29;;;;;;;;;;;;;;;20.72;50.52;96792.06;4214337;28;5698;-78
2022/05/25 05:51:32;;;;;;;;;;;;;;;20.86;50.38;96797.84;4214777;28;5749;-79
2022/05/25 05:53:35;;;;;;;;;;;;;;;20.98;49.86;96801.16;4215008;28;5701;-79
2022/05/25 05:55:40;;;;;;;;;;;;;;;21.09;49.94;96799.31;4214909;28;5694;-79
2022/05/25 05:57:43;;;;;;;;;;;;;;;21.18;49.88;96798.59;4214567;28;5744;-79
2022/05/25 05:59:48;;;;;;;;;;;;;;;21.26;49.39;96796.50;4208376;28;5710;-78
2022/05/25 06:01:52;;;;;;;;;;;;;;;21.33;49.39;96803.25;4199976;28;5809;-79
2022/05/25 06:03:55;;;;;;;;;;;;;;;21.40;49.03;96801.13;4214438;28;5776;-78
2022/05/25 06:06:01;;;;;;;;;;;;;;;21.45;48.82;96806.53;4214567;28;5722;-79
2022/05/25 06:08:09;;;;;;;;;;;;;;;21.51;48.56;96807.34;4214322;28;5760;-79
2022/05/25 06:10:12;;;;;;;;;;;;;;;21.56;48.54;96811.97;4207222;28;5692;-79
2022/05/25 06:12:19;;;;;;;;;;;;;;;21.59;48.69;96811.44;4202887;28;5698;-80
2022/05/25 06:14:22;;;;;;;;;;;;;;;21.63;48.27;96809.81;4201790;28;5685;-79
2022/05/25 06:21:08;;;;;;;;;;;;;;;21.72;47.59;96827.91;4203271;28;5712;-79
2022/05/25 06:23:11;;;;;;;;;;;;;;;21.76;47.81;96828.19;4203115;28;5689;-79
2022/05/25 06:25:15;;;;;;;;;;;;;;;21.80;47.44;96831.97;4203026;28;5110;-79
2022/05/25 06:27:24;;;;;;;;;;;;;;;21.83;47.65;96828.75;4203311;28;5749;-79
2022/05/25 06:29:27;;;;;;;;;;;;;;;21.85;47.17;96831.97;4202812;28;5801;-80
2022/05/25 06:31:33;;;;;;;;;;;;;;;21.89;47.35;96835.78;4203131;28;5705;-80
2022/05/25 06:33:37;;;;;;;;;;;;;;;21.93;47.33;96834.16;4200758;28;5113;-80
2022/05/25 06:35:40;;;;;;;;;;;;;;;21.96;46.81;96830.13;4201721;28;5697;-80
2022/05/25 06:37:43;;;;;;;;;;;;;;;21.99;46.69;96830.44;4201429;28;5692;-80
2022/05/25 06:39:46;;;;;;;;;;;;;;;22.04;47.02;96837.69;4202830;28;5717;-79
2022/05/25 06:41:49;;;;;;;;;;;;;;;22.06;46.44;96833.69;4201361;28;5725;-80
2022/05/25 06:43:52;;;;;;;;;;;;;;;22.08;46.53;96841.50;4201595;28;5792;-81
2022/05/25 06:45:56;;;;;;;;;;;;;;;22.11;46.58;96843.69;4200450;28;5815;-80
2022/05/25 06:48:03;;;;;;;;;;;;;;;22.14;46.28;96840.47;4201154;28;5709;-80
2022/05/25 06:50:07;;;;;;;;;;;;;;;22.17;46.20;96845.31;4202608;28;5712;-80
2022/05/25 06:52:11;;;;;;;;;;;;;;;22.17;46.20;96836.41;4201687;28;5709;-80
2022/05/25 06:54:15;;;;;;;;;;;;;;;22.17;46.44;96839.09;4192595;28;5774;-80
2022/05/25 06:56:18;;;;;;;;;;;;;;;22.15;46.14;96833.19;4188494;28;5824;-80
2022/05/25 06:58:21;;;;;;;;;;;;;;;22.11;46.07;96835.59;4202311;28;5713;-80
2022/05/25 07:00:24;;;;;;;;;;;;;;;22.09;46.37;96837.75;4200447;28;5106;-80
2022/05/25 07:02:28;;;;;;;;;;;;;;;22.06;46.48;96844.47;4201758;28;5748;-80
2022/05/25 07:04:34;;;;;;;;;;;;;;;22.05;46.37;96842.81;4201126;28;5660;-80
2022/05/25 07:06:39;;;;;;;;;;;;;;;22.03;46.35;96850.34;4199969;28;5774;-74
2022/05/25 07:08:44;;;;;;;;;;;;;;;21.97;46.08;96846.03;4201618;28;5756;-75
2022/05/25 07:10:47;;;;;;;;;;;;;;;21.91;46.51;96847.09;4200787;28;5864;-74
2022/05/25 07:12:52;;;;;;;;;;;;;;;21.87;46.10;96829.84;4189371;28;5672;-77
2022/05/25 07:14:55;;;;;;;;;;;;;;;21.80;46.12;96842.75;4201107;28;6596;-76
2022/05/25 07:17:00;;;;;;;;;;;;;;;21.75;46.49;96834.66;4202120;28;5883;-75
2022/05/25 07:19:04;;;;;;;;;;;;;;;21.67;46.48;96840.53;4200886;28;6564;-75
2022/05/25 07:21:12;;;;;;;;;;;;;;;21.61;46.42;96857.72;4201400;28;5792;-75
2022/05/25 07:23:15;;;;;;;;;;;;;;;21.59;46.55;96854.47;4201873;28;5689;-75
2022/05/25 07:25:18;;;;;;;;;;;;;;;21.58;46.75;96855.56;4202035;28;5855;-75
2022/05/25 07:27:21;;;;;;;;;;;;;;;21.57;46.38;96856.63;4201908;28;5756;-75
2022/05/25 07:29:24;;;;;;;;;;;;;;;21.55;46.91;96856.88;4201557;28;5729;-75
2022/05/25 07:31:32;;;;;;;;;;;;;;;21.50;46.47;96857.66;4201837;28;5808;-75
2022/05/25 07:33:38;;;;;;;;;;;;;;;21.49;46.34;96860.59;4201801;28;5756;-75
2022/05/25 07:35:41;;;;;;;;;;;;;;;21.48;46.37;96867.06;4200571;28;5705;-75
2022/05/25 07:37:50;;;;;;;;;;;;;;;21.45;46.45;96868.41;4201998;28;5756;-75
2022/05/25 07:40:02;;;;;;;;;;;;;;;21.41;46.26;96864.63;4201883;28;5792;-76
2022/05/25 07:42:06;;;;;;;;;;;;;;;21.38;46.71;96875.88;4201902;28;5685;-75
2022/05/25 07:44:14;;;;;;;;;;;;;;;21.33;46.53;96872.34;4201497;28;5681;-76
2022/05/25 07:46:17;;;;;;;;;;;;;;;21.29;46.41;96871.25;4201728;28;5796;-76
2022/05/25 07:48:20;;;;;;;;;;;;;;;21.28;46.64;96865.06;4201616;28;5712;-75
2022/05/25 07:50:24;;;;;;;;;;;;;;;21.32;46.63;96871.56;4201501;28;5686;-76
2022/05/25 07:52:32;;;;;;;;;;;;;;;21.33;46.76;96878.53;4200361;28;5788;-75
2022/05/25 07:54:36;;;;;;;;;;;;;;;21.32;46.65;96876.13;4201512;28;6448;-75
2022/05/25 07:56:41;;;;;;;;;;;;;;;21.33;46.57;96873.16;4201715;28;5693;-76
2022/05/25 07:58:45;;;;;;;;;;;;;;;21.40;46.24;96876.41;4201279;28;5725;-76
2022/05/25 08:00:54;;;;;;;;;;;;;;;21.46;46.19;96883.47;4200530;28;5793;-78
2022/05/25 08:05:47;;;;;;;;;;;;;;;21.40;46.54;96881.78;4201640;28;5685;-78
2022/05/25 08:07:50;;;;;;;;;;;;;;;21.43;46.34;96884.00;4201855;28;5701;-78
2022/05/25 08:10:01;;;;;;;;;;;;;;;21.46;46.24;96894.22;4200954;28;5777;-78
2022/05/25 08:12:08;;;;;;;;;;;;;;;21.49;46.35;96880.25;4201480;28;5713;-77
2022/05/25 08:14:12;;;;;;;;;;;;;;;21.53;46.39;96894.00;4201037;28;5694;-78
2022/05/25 08:16:15;;;;;;;;;;;;;;;21.51;46.20;96890.75;4201341;28;5748;-77
2022/05/25 08:18:20;;;;;;;;;;;;;;;21.46;46.44;96891.53;4201170;28;5787;-76
2022/05/25 08:20:23;;;;;;;;;;;;;;;21.45;46.18;96886.41;4201107;28;5938;-77
2022/05/25 08:22:26;;;;;;;;;;;;;;;21.43;46.44;96889.38;4201527;28;5681;-78
2022/05/25 08:24:30;;;;;;;;;;;;;;;21.43;46.11;96891.25;4201044;28;5765;-75
2022/05/25 08:26:40;;;;;;;;;;;;;;;21.43;46.50;96894.75;4200990;28;5709;-76
2022/05/25 08:28:43;;;;;;;;;;;;;;;21.38;46.51;96892.00;4199760;28;5900;-78
2022/05/25 08:30:46;;;;;;;;;;;;;;;21.38;46.27;96889.31;4199395;28;5678;-76
2022/05/25 08:32:50;;;;;;;;;;;;;;;21.41;46.33;96902.28;4200887;28;5677;-78
2022/05/25 08:34:53;;;;;;;;;;;;;;;21.40;46.64;96892.56;4200941;28;5784;-75
2022/05/25 08:36:56;;;;;;;;;;;;;;;21.38;46.36;96900.06;4200905;28;5682;-76
2022/05/25 08:39:00;;;;;;;;;;;;;;;21.37;46.55;96900.34;4200941;28;6499;-76
2022/05/25 08:41:03;;;;;;;;;;;;;;;21.35;46.79;96899.78;4201012;28;5709;-77
2022/05/25 08:43:16;;;;;;;;;;;;;;;21.35;46.59;96899.78;4201237;28;5773;-75
2022/05/25 08:45:20;;;;;;;;;;;;;;;21.36;46.82;96902.22;4200912;28;5713;-77
2022/05/25 08:47:24;;;;;;;;;;;;;;;21.40;46.78;96899.81;4201356;28;5765;-77
2022/05/25 08:49:31;;;;;;;;;;;;;;;21.38;46.85;96893.88;4200825;28;5848;-75
2022/05/25 08:51:47;;;;;;;;;;;;;;;21.35;46.94;96897.09;4200540;28;5705;-76
2022/05/25 08:53:50;;;;;;;;;;;;;;;21.34;46.75;96896.28;4200914;28;5799;-76
2022/05/25 08:56:08;;;;;;;;;;;;;;;21.34;47.08;96892.81;4200893;28;5764;-75
2022/05/25 08:58:14;;;;;;;;;;;;;;;21.34;47.00;96890.09;4200841;28;5787;-75
2022/05/25 09:00:22;;;;;;;;;;;;;;;21.33;46.94;96892.00;4199868;28;5674;-78
2022/05/25 09:02:30;;;;;;;;;;;;;;;21.33;47.15;96889.31;4200993;28;5819;-75
2022/05/25 09:04:38;;;;;;;;;;;;;;;21.36;46.78;96893.34;4200834;28;5726;-76
2022/05/25 09:06:50;;;;;;;;;;;;;;;21.37;47.08;96887.69;4200809;28;5697;-78
2022/05/25 09:09:01;;;;;;;;;;;;;;;21.41;46.79;96890.72;4200440;28;5693;-75
2022/05/25 09:11:12;;;;;;;;;;;;;;;21.42;47.05;96898.50;4200718;28;5689;-78
2022/05/25 09:13:23;;;;;;;;;;;;;;;21.43;46.68;96900.13;4200825;28;5158;-76
2022/05/25 09:15:29;;;;;;;;;;;;;;;21.43;47.03;96892.06;4200619;28;5741;-76
2022/05/25 09:17:37;;;;;;;;;;;;;;;21.43;47.06;96896.63;4199657;28;5728;-78
2022/05/25 09:19:45;;;;;;;;;;;;;;;21.40;47.00;96897.94;4200865;28;6395;-75
2022/05/25 09:21:53;;;;;;;;;;;;;;;21.37;47.07;96900.34;4200714;28;5685;-76
2022/05/25 09:23:58;;;;;;;;;;;;;;;21.32;47.07;96893.06;4200735;28;5828;-76
2022/05/25 09:26:02;;;;;;;;;;;;;;;21.32;47.15;96895.75;4200590;28;5681;-77
2022/05/25 09:28:12;;;;;;;;;;;;;;;21.31;47.11;96894.13;4200405;28;5765;-76
2022/05/25 09:30:16;;;;;;;;;;;;;;;21.35;46.88;96897.91;4200156;28;5689;-77
2022/05/25 09:32:41;;;;;;;;;;;;;;;21.37;46.91;96890.38;4201015;28;5824;-75
2022/05/25 09:34:52;;;;;;;;;;;;;;;21.38;46.98;96892.00;4199318;28;5763;-76
2022/05/25 09:37:00;;;;;;;;;;;;;;;21.39;46.64;96896.31;4200550;28;5689;-75
2022/05/25 09:39:06;;;;;;;;;;;;;;;21.41;46.74;96901.47;4199511;28;5791;-76
2022/05/25 09:41:12;;;;;;;;;;;;;;;21.43;46.76;96899.31;4200367;28;5788;-77
2022/05/25 09:43:20;;;;;;;;;;;;;;;21.45;46.56;96902.56;4200644;28;5870;-75
2022/05/25 09:45:40;;;;;;;;;;;;;;;21.49;46.43;96909.03;4201837;28;5681;-75
2022/05/25 09:47:46;;;;;;;;;;;;;;;21.53;46.35;96912.03;4203623;28;6398;-75
2022/05/25 09:49:52;;;;;;;;;;;;;;;21.57;46.53;96910.41;4203675;28;5745;-75
2022/05/25 09:51:55;;;;;;;;;;;;;;;21.57;46.67;96915.81;4203546;28;5692;-76
2022/05/25 09:54:04;;;;;;;;;;;;;;;21.58;46.41;96907.47;4203375;28;5753;-77
2022/05/25 09:56:11;;;;;;;;;;;;;;;21.59;46.38;96909.09;4203544;28;5800;-77
2022/05/25 09:58:25;;;;;;;;;;;;;;;21.60;46.06;96909.91;4203791;28;5062;-76
2022/05/25 10:00:43;;;;;;;;;;;;;;;21.62;46.01;96913.13;4193052;28;5721;-78
2022/05/25 10:02:50;;;;;;;;;;;;;;;21.64;46.16;96913.69;4203520;28;5772;-76
2022/05/25 10:04:55;;;;;;;;;;;;;;;21.64;46.15;96911.00;4191275;28;5731;-77
2022/05/25 10:06:59;;;;;;;;;;;;;;;21.63;46.09;96915.59;4186943;28;5710;-76
2022/05/25 10:09:11;;;;;;;;;;;;;;;21.66;45.80;96908.88;4186433;28;7788;-76
2022/05/25 10:11:31;;;;;;;;;;;;;;;21.67;45.90;96910.47;4186357;28;5727;-76
2022/05/25 10:13:40;;;;;;;;;;;;;;;21.70;45.91;96910.75;4186898;28;5758;-76
2022/05/25 10:15:47;;;;;;;;;;;;;;;21.76;45.34;96914.31;4186499;28;5703;-77
2022/05/25 10:17:50;;;;;;;;;;;;;;;21.77;45.76;96910.53;4199755;28;5708;-76
2022/05/25 10:19:56;;;;;;;;;;;;;;;21.78;45.71;96910.28;4203067;28;5701;-77
2022/05/25 10:22:00;;;;;;;;;;;;;;;21.79;45.73;96909.19;4203354;28;5805;-78
2022/05/25 10:24:15;;;;;;;;;;;;;;;21.80;45.83;96912.69;4199037;28;5950;-76
2022/05/25 10:26:29;;;;;;;;;;;;;;;21.82;45.59;96904.38;4202046;28;5668;-77
2022/05/25 10:28:33;;;;;;;;;;;;;;;21.86;45.49;96911.66;4202172;28;5794;-75
2022/05/25 10:37:55;;;;;;;;;;;;;;;21.88;45.09;96908.72;4203098;28;5898;-77
2022/05/25 10:40:02;;;;;;;;;;;;;;;21.90;44.69;96910.06;4202164;28;5708;-75
2022/05/25 10:42:18;;;;;;;;;;;;;;;21.92;44.62;96907.91;4201780;28;5808;-76
2022/05/25 10:44:24;;;;;;;;;;;;;;;21.93;44.72;96900.66;4200847;28;5701;-74
2022/05/25 10:46:28;;;;;;;;;;;;;;;21.94;44.68;96899.56;4203037;28;5748;-77
2022/05/25 10:48:45;;;;;;;;;;;;;;;21.93;44.11;96898.75;4202479;28;5668;-75
2022/05/25 10:50:51;;;;;;;;;;;;;;;21.92;44.10;96897.16;4202638;28;6453;-74
2022/05/25 10:53:24;;;;;;;;;;;;;;;21.96;43.77;96902.81;4201938;28;5660;-75
2022/05/25 10:55:34;;;;;;;;;;;;;;;21.95;43.95;96904.69;4202438;28;5913;-77
2022/05/25 10:57:53;;;;;;;;;;;;;;;21.96;43.41;96902.81;4202203;28;7702;-76
2022/05/25 11:00:04;;;;;;;;;;;;;;;21.96;43.14;96903.63;4201617;28;5976;-76
2022/05/25 11:02:25;;;;;;;;;;;;;;;21.99;43.33;96903.09;4202745;28;6455;-76
2022/05/25 11:05:02;;;;;;;;;;;;;;;21.99;43.42;96905.00;4201830;28;5728;-75
2022/05/25 11:07:16;;;;;;;;;;;;;;;22.00;43.25;96906.59;4202703;28;5693;-76
2022/05/25 11:09:32;;;;;;;;;;;;;;;22.04;43.39;96900.41;4195542;28;7376;-75
2022/05/25 11:11:43;;;;;;;;;;;;;;;22.07;43.26;96899.13;4195284;28;5788;-77
2022/05/25 11:14:13;;;;;;;;;;;;;;;22.07;42.67;96899.91;4194125;28;5744;-77
2022/05/25 11:16:27;;;;;;;;;;;;;;;22.12;42.65;96901.03;4200331;28;5690;-78
2022/05/25 11:18:53;;;;;;;;;;;;;;;22.18;41.98;96894.56;4204070;28;5733;-81
2022/05/25 11:21:16;;;;;;;;;;;;;;;22.24;41.92;96901.59;4203967;28;5705;-80
2022/05/25 11:23:49;;;;;;;;;;;;;;;22.28;42.03;96895.41;4203453;28;5705;-77
2022/05/25 11:26:08;;;;;;;;;;;;;;;22.32;41.62;96895.72;4202929;28;5696;-83
2022/05/25 11:28:43;;;;;;;;;;;;;;;22.35;41.65;96908.66;4188370;28;5723;-78
2022/05/25 11:31:01;;;;;;;;;;;;;;;22.33;41.78;96900.03;4200618;28;5713;-77
2022/05/25 11:33:18;;;;;;;;;;;;;;;22.32;41.89;96901.09;4202835;28;5705;-75
2022/05/25 11:35:48;;;;;;;;;;;;;;;22.33;41.76;96903.53;4202474;28;5701;-73
2022/05/25 11:38:11;;;;;;;;;;;;;;;22.38;41.56;96903.53;4201032;28;5855;-76
2022/05/25 11:40:22;;;;;;;;;;;;;;;22.42;41.15;96906.50;4201748;28;5765;-75
2022/05/25 11:42:40;;;;;;;;;;;;;;;22.46;41.20;96902.22;4202110;28;5701;-73
2022/05/25 11:45:04;;;;;;;;;;;;;;;22.48;41.19;96899.25;4192221;28;6665;-76
2022/05/25 11:47:19;;;;;;;;;;;;;;;22.50;40.65;96895.19;4199951;28;5894;-76
2022/05/25 11:49:41;;;;;;;;;;;;;;;22.53;40.58;96897.34;4193137;28;5693;-75
2022/05/25 11:51:55;;;;;;;;;;;;;;;22.57;40.46;96901.16;4202548;28;5820;-75
2022/05/25 11:54:19;;;;;;;;;;;;;;;22.61;40.25;96894.13;4202773;28;5768;-72
2022/05/25 11:56:36;;;;;;;;;;;;;;;22.63;40.60;96907.34;4198561;28;5698;-75
2022/05/25 11:58:54;;;;;;;;;;;;;;;22.64;40.45;96907.06;4202377;28;5795;-76
2022/05/25 12:01:02;;;;;;;;;;;;;;;22.66;40.28;96899.56;4198820;28;6285;-74
2022/05/25 12:03:36;;;;;;;;;;;;;;;22.66;40.38;96904.13;4185592;28;5802;-73
2022/05/25 12:05:55;;;;;;;;;;;;;;;22.70;40.09;96909.78;4200809;28;5935;-71
2022/05/25 12:08:16;;;;;;;;;;;;;;;22.72;40.04;96904.94;4185329;28;8651;-76
2022/05/25 12:10:30;;;;;;;;;;;;;;;22.71;39.72;96906.81;4185083;28;6551;-73
2022/05/25 12:12:38;;;;;;;;;;;;;;;22.69;40.03;96906.28;4184960;28;5722;-74
2022/05/25 12:14:55;;;;;;;;;;;;;;;22.70;39.89;96907.91;4184648;28;5711;-69
2022/05/25 12:17:09;;;;;;;;;;;;;;;22.74;39.86;96916.25;4187164;28;5689;-70
2022/05/25 12:19:24;;;;;;;;;;;;;;;22.75;39.47;96907.09;4184697;28;5869;-74
2022/05/25 12:21:32;;;;;;;;;;;;;;;22.77;39.49;96918.44;4184743;28;5817;-75
2022/05/25 12:23:40;;;;;;;;;;;;;;;22.78;39.86;96909.28;4184756;28;5978;-71
2022/05/25 12:25:52;;;;;;;;;;;;;;;22.83;39.75;96911.97;4184544;28;7721;-73
2022/05/25 12:27:57;;;;;;;;;;;;;;;22.89;39.35;96916.31;4184643;28;5722;-75
2022/05/25 12:30:07;;;;;;;;;;;;;;;22.95;39.08;96918.72;4184260;28;5805;-74
2022/05/25 12:32:13;;;;;;;;;;;;;;;23.00;39.31;96912.56;4185309;28;5798;-71
2022/05/25 12:34:20;;;;;;;;;;;;;;;23.03;39.20;96920.09;4198918;28;5697;-76
2022/05/25 12:36:24;;;;;;;;;;;;;;;23.08;38.99;96912.00;4197329;28;5681;-72
2022/05/25 12:38:30;;;;;;;;;;;;;;;23.14;38.84;96921.72;4201011;28;5756;-75
2022/05/25 12:40:47;;;;;;;;;;;;;;;23.18;38.73;96930.88;4200954;28;5696;-72
2022/05/25 12:42:50;;;;;;;;;;;;;;;23.18;38.48;96925.47;4201368;28;5713;-75
2022/05/25 12:49:40;;;;;;;;;;;;;;;23.12;38.75;96931.16;4200876;28;5689;-76
2022/05/25 12:51:47;;;;;;;;;;;;;;;23.12;38.23;96925.75;4200980;28;5785;-73
2022/05/25 12:53:58;;;;;;;;;;;;;;;23.14;38.53;96932.50;4201023;28;5681;-75
2022/05/25 12:56:06;;;;;;;;;;;;;;;23.18;38.59;96928.16;4200855;28;5697;-74
2022/05/25 12:58:09;;;;;;;;;;;;;;;23.20;38.50;96923.31;4200885;28;5812;-74
2022/05/25 13:00:21;;;;;;;;;;;;;;;23.21;38.24;96924.13;4197207;28;5696;-75
2022/05/25 13:02:29;;;;;;;;;;;;;;;23.21;38.11;96922.22;4185917;28;5710;-73
2022/05/25 13:04:47;;;;;;;;;;;;;;;23.20;38.51;96928.69;4190282;28;5685;-70
2022/05/25 13:07:32;;;;;;;;;;;;;;;23.21;38.40;96932.22;4199603;28;5697;-72
2022/05/25 13:09:40;;;;;;;;;;;;;;;23.23;38.22;96932.78;4199671;28;6493;-75
2022/05/25 13:11:49;;;;;;;;;;;;;;;23.26;37.92;96936.81;4201091;28;5689;-74
2022/05/25 13:13:59;;;;;;;;;;;;;;;23.29;37.84;96930.88;4200890;28;5693;-73
2022/05/25 13:16:03;;;;;;;;;;;;;;;23.32;38.11;96935.72;4200536;28;5681;-72
2022/05/25 13:18:07;;;;;;;;;;;;;;;23.36;37.73;96926.00;4200826;28;5796;-71
2022/05/25 13:20:15;;;;;;;;;;;;;;;23.40;38.07;96927.88;4200162;28;5689;-76
2022/05/25 13:22:27;;;;;;;;;;;;;;;23.44;38.12;96933.53;4204487;28;5705;-76
2022/05/25 13:24:44;;;;;;;;;;;;;;;23.47;38.17;96928.44;4204264;28;6431;-73
2022/05/25 13:27:19;;;;;;;;;;;;;;;23.47;38.65;96925.72;4203998;28;5701;-73
2022/05/25 13:29:28;;;;;;;;;;;;;;;23.44;38.28;96926.28;4202290;28;5693;-73
2022/05/25 13:31:40;;;;;;;;;;;;;;;23.45;38.82;96919.00;4204315;28;5710;-70
2022/05/25 13:33:47;;;;;;;;;;;;;;;23.45;38.70;96919.81;4204039;28;5685;-70
2022/05/25 13:35:53;;;;;;;;;;;;;;;23.45;38.44;96927.09;4203138;28;6473;-70
2022/05/25 13:38:01;;;;;;;;;;;;;;;23.45;38.08;96925.19;4202912;28;5697;-73
2022/05/25 13:40:09;;;;;;;;;;;;;;;23.45;38.13;96924.41;4204061;28;5697;-76
2022/05/25 13:42:17;;;;;;;;;;;;;;;23.44;38.42;96925.44;4203814;28;5693;-74
2022/05/25 13:44:25;;;;;;;;;;;;;;;23.45;38.27;96929.78;4202464;28;5755;-70
2022/05/25 13:46:33;;;;;;;;;;;;;;;23.46;37.92;96931.41;4203594;28;5698;-74
2022/05/25 13:48:37;;;;;;;;;;;;;;;23.48;38.10;96926.53;4203470;28;5784;-74
2022/05/25 13:50:44;;;;;;;;;;;;;;;23.50;38.08;96933.28;4203606;28;5821;-71
2022/05/25 13:52:47;;;;;;;;;;;;;;;23.54;38.08;96936.22;4203668;28;5788;-69
2022/05/25 13:54:54;;;;;;;;;;;;;;;23.56;37.61;96931.41;4203706;28;5780;-74
2022/05/25 13:56:58;;;;;;;;;;;;;;;23.57;37.69;96933.00;4203544;28;5689;-76
2022/05/25 13:59:09;;;;;;;;;;;;;;;23.61;37.85;96936.78;4203511;28;5820;-74
2022/05/25 14:01:15;;;;;;;;;;;;;;;23.66;37.93;96931.38;4186163;28;5706;-75
2022/05/25 14:03:26;;;;;;;;;;;;;;;23.71;37.57;96939.47;4187035;28;5812;-76
2022/05/25 14:05:34;;;;;;;;;;;;;;;23.72;37.59;96933.00;4186678;28;5787;-71
2022/05/25 14:07:41;;;;;;;;;;;;;;;23.75;37.39;96937.03;4186950;28;5826;-74
2022/05/25 14:12:13;;;;;;;;;;;;;;;23.81;36.92;96931.34;4186138;28;5744;-76
2022/05/25 14:14:22;;;;;;;;;;;;;;;23.84;36.75;96931.88;4186038;28;6477;-73
2022/05/25 14:16:27;;;;;;;;;;;;;;;23.86;36.71;96929.72;4186258;28;5787;-69
2022/05/25 14:18:41;;;;;;;;;;;;;;;23.88;37.09;96928.34;4185770;28;6579;-73
2022/05/25 14:20:44;;;;;;;;;;;;;;;23.90;36.71;96919.97;4189372;28;5817;-68
2022/05/25 14:22:47;;;;;;;;;;;;;;;23.89;36.80;96921.88;4186790;28;5792;-71
2022/05/25 14:24:52;;;;;;;;;;;;;;;23.89;36.38;96923.75;4190557;28;5861;-69
2022/05/25 14:26:59;;;;;;;;;;;;;;;23.89;36.70;96932.66;4183558;28;5829;-69
2022/05/25 14:29:05;;;;;;;;;;;;;;;23.90;36.72;96919.97;4185377;28;5919;-70
2022/05/25 14:31:10;;;;;;;;;;;;;;;23.93;36.79;96930.25;4195353;28;5800;-72
2022/05/25 14:33:20;;;;;;;;;;;;;;;23.95;36.41;96931.59;4196739;28;5909;-75
2022/05/25 14:35:24;;;;;;;;;;;;;;;23.97;36.77;96937.50;4184657;28;5814;-73
2022/05/25 14:37:30;;;;;;;;;;;;;;;23.99;36.40;96931.81;4182052;28;5809;-71
2022/05/25 14:39:36;;;;;;;;;;;;;;;23.96;36.92;96930.50;4188974;28;5788;-76
2022/05/25 14:41:48;;;;;;;;;;;;;;;23.94;36.99;96929.97;4187681;28;5814;-73
2022/05/25 14:43:52;;;;;;;;;;;;;;;23.95;36.69;96941.56;4185983;28;5846;-71
2022/05/25 14:46:07;;;;;;;;;;;;;;;23.93;36.50;96935.66;4199119;28;5839;-73
2022/05/25 14:48:14;;;;;;;;;;;;;;;23.90;36.63;96945.09;4199561;28;5756;-71
2022/05/25 14:50:21;;;;;;;;;;;;;;;23.91;36.23;96940.53;4190717;28;5728;-70
2022/05/25 14:52:27;;;;;;;;;;;;;;;23.91;36.19;96943.22;4183493;28;7767;-72
2022/05/25 14:54:30;;;;;;;;;;;;;;;23.92;36.29;96944.84;4192103;28;6481;-73
2022/05/25 14:56:34;;;;;;;;;;;;;;;23.93;36.46;96943.75;4201261;28;5677;-70
2022/05/25 14:58:39;;;;;;;;;;;;;;;23.94;35.97;96943.47;4201313;28;5661;-70
2022/05/25 15:00:47;;;;;;;;;;;;;;;23.94;35.90;96948.06;4188938;28;6504;-75
2022/05/25 15:02:59;;;;;;;;;;;;;;;23.93;35.99;96939.16;4190987;28;5720;-75
2022/05/25 15:05:27;;;;;;;;;;;;;;;23.92;36.22;96936.72;4197505;28;5660;-71
2022/05/25 15:07:30;;;;;;;;;;;;;;;23.91;36.10;96941.31;4189545;28;6714;-73
2022/05/25 15:09:35;;;;;;;;;;;;;;;23.91;35.92;96948.63;4191278;28;5690;-68
2022/05/25 15:11:40;;;;;;;;;;;;;;;23.91;36.17;96940.53;4193315;28;5780;-72
2022/05/25 15:18:30;;;;;;;;;;;;;;;23.88;35.92;96949.16;4184278;28;5742;-73
2022/05/25 15:20:43;;;;;;;;;;;;;;;23.87;35.58;96942.94;4190972;28;6242;-73
2022/05/25 15:22:49;;;;;;;;;;;;;;;23.87;35.88;96944.81;4187585;28;5911;-69
2022/05/25 15:25:15;;;;;;;;;;;;;;;23.87;35.43;96942.94;4192737;28;5756;-67
2022/05/25 15:27:24;;;;;;;;;;;;;;;23.86;35.84;96941.31;4202155;28;5694;-71
2022/05/25 15:29:31;;;;;;;;;;;;;;;23.84;35.51;96937.28;4201997;28;5773;-73
2022/05/25 15:31:35;;;;;;;;;;;;;;;23.83;35.43;96938.38;4200750;28;5816;-74
2022/05/25 15:33:38;;;;;;;;;;;;;;;23.84;35.29;96950.78;4190382;28;5777;-74
2022/05/25 15:35:43;;;;;;;;;;;;;;;23.82;35.35;96948.38;4194389;28;5794;-68
2022/05/25 15:37:54;;;;;;;;;;;;;;;23.81;34.89;96954.84;4189892;28;5784;-73
2022/05/25 15:40:04;;;;;;;;;;;;;;;23.81;35.14;96955.66;4191463;28;5710;-73
2022/05/25 15:42:25;;;;;;;;;;;;;;;23.84;35.42;96951.59;4191741;28;5976;-73
2022/05/25 15:44:28;;;;;;;;;;;;;;;23.83;35.31;96952.69;4188206;28;5723;-68
2022/05/25 15:46:35;;;;;;;;;;;;;;;23.81;35.02;96950.25;4192675;28;5753;-70
2022/05/25 15:48:42;;;;;;;;;;;;;;;23.82;35.16;96951.06;4200528;28;6721;-71
2022/05/25 15:50:50;;;;;;;;;;;;;;;23.82;34.81;96951.06;4195329;28;6002;-76
2022/05/25 15:52:53;;;;;;;;;;;;;;;23.83;34.86;96949.16;4199949;28;5772;-73
2022/05/25 15:54:56;;;;;;;;;;;;;;;23.84;35.42;96953.47;4195421;28;5696;-75
2022/05/25 15:56:59;;;;;;;;;;;;;;;23.85;34.99;96950.50;4199958;28;5957;-71
2022/05/25 15:59:04;;;;;;;;;;;;;;;23.87;35.12;96952.94;4195431;28;5748;-66
2022/05/25 16:01:09;;;;;;;;;;;;;;;23.87;35.32;96947.53;4195156;28;5709;-65
2022/05/25 16:03:14;;;;;;;;;;;;;;;23.87;34.92;96948.34;4200715;28;5757;-70
2022/05/25 16:05:20;;;;;;;;;;;;;;;23.88;35.32;96949.94;4197485;28;5713;-65
2022/05/25 16:09:11;;;;;;;;;;;;;;;23.89;35.07;96948.88;4201319;28;6419;-68
2022/05/25 16:09:47;;;;;;;;;;;;;;;23.88;35.13;96947.25;4197691;28;5696;-67
2022/05/25 16:11:53;;;;;;;;;;;;;;;23.88;34.95;96949.16;4200304;28;5700;-65
2022/05/25 16:13:57;;;;;;;;;;;;;;;23.87;34.98;96952.94;4200944;28;5706;-65
2022/05/25 16:16:00;;;;;;;;;;;;;;;23.85;34.98;96947.81;4200270;28;5792;-69
2022/05/25 16:18:03;;;;;;;;;;;;;;;23.86;35.17;96952.13;4200295;28;5134;-72
2022/05/25 16:20:07;;;;;;;;;;;;;;;23.87;34.70;96956.44;4200413;28;5788;-64
2022/05/25 16:22:10;;;;;;;;;;;;;;;23.90;34.63;96957.78;4201116;28;5673;-67
2022/05/25 16:24:20;;;;;;;;;;;;;;;23.92;34.76;96958.34;4200521;28;5737;-65
2022/05/25 16:26:25;;;;;;;;;;;;;;;23.92;34.85;96964.53;4198930;28;5886;-66
2022/05/25 16:28:28;;;;;;;;;;;;;;;23.93;34.53;96962.66;4199849;28;5695;-65
2022/05/25 16:30:31;;;;;;;;;;;;;;;23.94;35.04;96964.25;4194841;28;5807;-69
2022/05/25 16:32:34;;;;;;;;;;;;;;;23.94;34.82;96972.34;4200039;28;5693;-66
2022/05/25 16:34:37;;;;;;;;;;;;;;;23.92;34.71;96971.84;4199969;28;6151;-65
2022/05/25 16:36:41;;;;;;;;;;;;;;;23.92;34.76;96969.13;4196388;28;5792;-65
2022/05/25 16:38:45;;;;;;;;;;;;;;;23.93;34.56;96968.84;4199554;28;5848;-65
2022/05/25 16:40:50;;;;;;;;;;;;;;;23.95;34.91;96968.56;4197781;28;5693;-74
2022/05/25 16:42:52;;;;;;;;;;;;;;;23.96;34.42;96964.78;4199105;28;5908;-65
2022/05/25 16:44:55;;;;;;;;;;;;;;;23.96;34.44;96968.28;4197128;28;6558;-68
2022/05/25 16:46:58;;;;;;;;;;;;;;;23.97;34.99;96969.91;4200043;28;5690;-67
2022/05/25 16:49:01;;;;;;;;;;;;;;;23.97;34.64;96974.50;4199813;28;6400;-67
2022/05/25 16:51:05;;;;;;;;;;;;;;;23.96;34.64;96973.69;4197680;28;5851;-73
2022/05/25 16:53:08;;;;;;;;;;;;;;;23.97;34.57;96985.31;4194619;28;6379;-65